Time;durP1;ratioP1;P1;durP2;ratioP2;P2;SDS_P1;SDS_P2;PMS_P1;PMS_P2;Temp;Humidity;BMP_temperature;BMP_pressure;BME280_temperature;BME280_humidity;BME280_pressure;Samples;Min_cycle;Max_cycle;Signal;HPM_P1;HPM_P2
2022/11/01 00:00:06;;;;;;;18.63;10.35;;;12.80;99.90;;;;;;5118226;27;20049;-84
2022/11/01 00:02:31;;;;;;;22.83;11.53;;;12.80;99.90;;;;;;5135463;27;20092;-84
2022/11/01 00:04:57;;;;;;;18.37;10.60;;;12.80;99.90;;;;;;5134783;27;20047;-84
2022/11/01 00:07:22;;;;;;;27.20;11.10;;;12.80;99.90;;;;;;5136184;27;20053;-83
2022/11/01 00:09:48;;;;;;;19.45;10.95;;;12.80;99.90;;;;;;5118307;27;20042;-84
2022/11/01 00:12:14;;;;;;;20.33;10.97;;;12.80;99.90;;;;;;5135189;27;20088;-84
2022/11/01 00:14:39;;;;;;;17.98;9.95;;;12.80;99.90;;;;;;5136034;27;20043;-84
2022/11/01 00:17:05;;;;;;;18.90;11.05;;;12.80;99.90;;;;;;5135421;27;20054;-84
2022/11/01 00:19:30;;;;;;;17.23;10.00;;;12.80;99.90;;;;;;5135935;27;20045;-84
2022/11/01 00:21:56;;;;;;;17.15;9.57;;;13.30;99.90;;;;;;5135752;27;20107;-84
2022/11/01 00:24:22;;;;;;;17.55;10.18;;;12.80;99.90;;;;;;5134821;27;20054;-84
2022/11/01 00:26:47;;;;;;;22.98;10.32;;;12.80;99.90;;;;;;5117684;27;20130;-83
2022/11/01 00:29:13;;;;;;;27.33;9.95;;;12.80;99.90;;;;;;5136179;27;20089;-84
2022/11/01 00:31:39;;;;;;;20.20;9.87;;;12.80;99.90;;;;;;5134960;27;20047;-84
2022/11/01 00:34:05;;;;;;;19.92;9.38;;;12.80;99.90;;;;;;5134318;27;20108;-84
2022/11/01 00:36:35;;;;;;;16.95;9.48;;;12.90;99.90;;;;;;5134308;27;20046;-84
2022/11/01 00:39:01;;;;;;;17.27;10.18;;;12.90;99.90;;;;;;5134482;27;20435;-84
2022/11/01 00:41:26;;;;;;;16.63;9.50;;;12.90;99.90;;;;;;5135191;27;20442;-84
2022/11/01 00:43:52;;;;;;;19.65;9.15;;;12.90;99.90;;;;;;5135345;27;20051;-83
2022/11/01 00:46:18;;;;;;;23.20;10.45;;;13.40;99.90;;;;;;5135366;27;20043;-83
2022/11/01 00:48:44;;;;;;;14.45;9.43;;;12.90;99.90;;;;;;5134167;27;20042;-84
2022/11/01 00:51:10;;;;;;;21.58;10.18;;;13.00;99.90;;;;;;5117179;27;20035;-83
2022/11/01 00:53:35;;;;;;;17.77;9.50;;;13.00;99.90;;;;;;5134002;27;20047;-84
2022/11/01 00:56:03;;;;;;;15.88;9.57;;;13.00;99.90;;;;;;5133426;27;20079;-84
2022/11/01 00:58:29;;;;;;;15.70;9.60;;;13.10;99.90;;;;;;5135082;27;20410;-84
2022/11/01 01:00:54;;;;;;;19.87;9.67;;;13.10;99.90;;;;;;5116810;27;20043;-84
2022/11/01 01:03:20;;;;;;;17.40;10.00;;;13.10;99.90;;;;;;5135098;27;20047;-84
2022/11/01 01:05:48;;;;;;;14.30;8.50;;;13.10;99.90;;;;;;5135113;27;20079;-84
2022/11/01 01:08:14;;;;;;;16.80;8.95;;;13.10;99.90;;;;;;5134407;27;20047;-84
2022/11/01 01:10:39;;;;;;;18.27;9.00;;;13.20;99.90;;;;;;5133925;27;20467;-84
2022/11/01 01:13:05;;;;;;;21.73;9.30;;;13.20;99.90;;;;;;5134987;27;20135;-84
2022/11/01 01:15:31;;;;;;;15.63;8.50;;;13.30;99.90;;;;;;5135473;27;20051;-84
2022/11/01 01:17:56;;;;;;;13.83;9.43;;;13.30;99.90;;;;;;5135231;27;20039;-84
2022/11/01 01:20:22;;;;;;;20.50;8.95;;;13.30;99.90;;;;;;5134139;27;20509;-84
2022/11/01 01:22:47;;;;;;;17.80;8.73;;;13.50;99.90;;;;;;5116611;27;20039;-84
2022/11/01 01:25:14;;;;;;;17.83;9.18;;;13.40;99.90;;;;;;5134919;27;20250;-84
2022/11/01 01:27:39;;;;;;;14.20;8.15;;;13.40;99.90;;;;;;5134937;27;20542;-84
2022/11/01 01:30:06;;;;;;;23.55;9.10;;;13.40;99.90;;;;;;5133797;28;20052;-84
2022/11/01 01:32:32;;;;;;;;;;;13.50;99.90;;;;;;5135216;27;20047;-84
2022/11/01 01:34:58;;;;;;;17.70;8.15;;;13.80;99.90;;;;;;5133510;28;19926;-84
2022/11/01 01:37:23;;;;;;;16.80;8.15;;;13.50;99.90;;;;;;5134311;28;20476;-84
2022/11/01 01:39:49;;;;;;;13.13;7.93;;;13.60;99.90;;;;;;5134838;28;20063;-84
2022/11/01 01:42:40;;;;;;;17.23;7.87;;;13.60;99.90;;;;;;5133730;28;20042;-84
2022/11/01 01:45:13;;;;;;;16.77;8.27;;;13.60;99.90;;;;;;5133938;28;20055;-84
2022/11/01 01:47:40;;;;;;;15.70;8.35;;;13.70;99.90;;;;;;5133689;28;20368;-84
2022/11/01 01:50:14;;;;;;;;;;;13.70;99.90;;;;;;5135324;27;20050;-84
2022/11/01 01:52:42;;;;;;;15.77;7.38;;;13.70;99.90;;;;;;5134640;27;20490;-84
2022/11/01 01:55:09;;;;;;;10.30;6.85;;;13.80;99.90;;;;;;5116134;28;20043;-84
2022/11/01 01:57:37;;;;;;;13.98;7.18;;;13.80;99.90;;;;;;5134437;27;20487;-84
2022/11/01 02:00:04;;;;;;;17.83;7.50;;;14.10;99.90;;;;;;5134492;27;20124;-84
2022/11/01 02:02:31;;;;;;;16.67;8.20;;;13.80;99.90;;;;;;5134518;27;20513;-84
2022/11/01 02:05:19;;;;;;;13.32;7.97;;;13.80;99.90;;;;;;5116336;28;20130;-84
2022/11/01 02:07:45;;;;;;;18.70;7.68;;;13.90;99.90;;;;;;5118795;27;20054;-84
2022/11/01 02:10:13;;;;;;;14.93;7.03;;;13.80;99.90;;;;;;5136926;27;20070;-84
2022/11/01 02:12:44;;;;;;;14.57;7.13;;;13.90;99.90;;;;;;5137645;27;20047;-84
2022/11/01 02:15:12;;;;;;;17.75;7.80;;;13.90;99.90;;;;;;5138524;27;20043;-84
2022/11/01 02:18:01;;;;;;;15.55;7.05;;;13.90;99.90;;;;;;5120022;27;20042;-84
2022/11/01 02:21:28;;;;;;;13.45;6.57;;;13.90;99.90;;;;;;5137119;27;20047;-84
2022/11/01 02:24:21;;;;;;;14.60;6.97;;;13.90;99.90;;;;;;5103450;27;20399;-84
2022/11/01 02:27:07;;;;;;;15.70;7.13;;;13.90;99.90;;;;;;5137384;27;20104;-85
2022/11/01 02:29:42;;;;;;;12.88;6.60;;;13.90;99.90;;;;;;5136513;27;20399;-84
2022/11/01 02:32:24;;;;;;;14.68;6.93;;;13.90;99.90;;;;;;5138036;27;20043;-84
2022/11/01 02:35:15;;;;;;;12.73;7.00;;;14.00;99.90;;;;;;5119577;27;20039;-84
2022/11/01 02:37:52;;;;;;;10.98;6.45;;;14.00;99.90;;;;;;5109261;27;20084;-84
2022/11/01 02:40:34;;;;;;;13.52;6.53;;;14.00;99.90;;;;;;5120317;27;20075;-84
2022/11/01 02:43:07;;;;;;;14.65;6.40;;;14.00;99.90;;;;;;5136631;27;20482;-84
2022/11/01 02:45:39;;;;;;;14.25;7.43;;;14.00;99.90;;;;;;5137617;27;20055;-84
2022/11/01 02:48:05;;;;;;;17.85;6.72;;;14.10;99.90;;;;;;5119783;27;20047;-84
2022/11/01 02:50:41;;;;;;;14.20;6.38;;;14.10;99.90;;;;;;5136770;27;20039;-84
2022/11/01 02:53:07;;;;;;;13.10;6.22;;;14.20;99.90;;;;;;5136697;27;20085;-84
2022/11/01 02:55:34;;;;;;;12.45;6.07;;;14.20;99.90;;;;;;5119015;27;20487;-83
2022/11/01 02:58:03;;;;;;;13.73;6.47;;;14.20;99.90;;;;;;5137479;27;20047;-84
2022/11/01 03:00:34;;;;;;;10.63;6.50;;;14.20;99.90;;;;;;5119906;27;20051;-84
2022/11/01 03:03:21;;;;;;;14.93;6.65;;;14.20;99.90;;;;;;5136569;27;20089;-84
2022/11/01 03:05:46;;;;;;;10.77;6.20;;;14.20;99.90;;;;;;5136194;27;20051;-84
2022/11/01 03:08:17;;;;;;;15.70;6.60;;;14.10;99.90;;;;;;5137187;27;20508;-84
2022/11/01 03:10:46;;;;;;;15.77;6.60;;;14.20;99.90;;;;;;5137708;27;20054;-85
2022/11/01 03:13:42;;;;;;;11.85;6.13;;;14.20;99.90;;;;;;5137322;27;20047;-84
2022/11/01 03:16:18;;;;;;;14.50;6.40;;;14.20;99.90;;;;;;5137250;27;20047;-84
2022/11/01 03:18:58;;;;;;;15.13;6.47;;;14.20;99.90;;;;;;5137041;27;20099;-84
2022/11/01 03:21:28;;;;;;;14.48;6.35;;;14.20;99.90;;;;;;5136823;27;20047;-84
2022/11/01 03:24:06;;;;;;;11.75;6.30;;;14.20;99.90;;;;;;5137308;27;20031;-85
2022/11/01 03:26:34;;;;;;;11.52;5.80;;;14.20;99.90;;;;;;5137313;27;20050;-84
2022/11/01 03:29:05;;;;;;;12.48;6.07;;;14.20;99.90;;;;;;5136212;27;20090;-84
2022/11/01 03:31:34;;;;;;;12.27;5.90;;;14.30;99.90;;;;;;5137119;27;20096;-84
2022/11/01 03:34:11;;;;;;;9.40;6.07;;;14.30;99.90;;;;;;5137041;27;20542;-84
2022/11/01 03:36:47;;;;;;;11.32;5.97;;;14.30;99.90;;;;;;5136537;27;20130;-84
2022/11/01 03:39:27;;;;;;;15.27;5.78;;;14.40;99.90;;;;;;5135675;27;20054;-84
2022/11/01 03:42:00;;;;;;;12.35;5.85;;;14.40;99.90;;;;;;5137634;27;20047;-85
2022/11/01 03:44:32;;;;;;;10.68;5.95;;;14.40;99.90;;;;;;5136693;27;20035;-84
2022/11/01 03:46:58;;;;;;;11.55;6.13;;;14.40;99.90;;;;;;5135493;27;20081;-84
2022/11/01 03:49:23;;;;;;;11.23;5.43;;;14.40;99.90;;;;;;5136454;27;20076;-84
2022/11/01 03:51:49;;;;;;;15.57;6.00;;;14.20;99.90;;;;;;5118315;27;20046;-84
2022/11/01 03:54:14;;;;;;;11.70;5.40;;;14.30;99.90;;;;;;5134944;27;20043;-85
2022/11/01 03:56:40;;;;;;;14.07;5.90;;;14.40;99.90;;;;;;5134927;27;20043;-84
2022/11/01 03:59:07;;;;;;;15.95;5.97;;;14.80;99.90;;;;;;5135953;27;20042;-84
2022/11/01 04:01:33;;;;;;;8.85;5.25;;;14.10;99.90;;;;;;5135355;27;20139;-85
2022/11/01 04:03:58;;;;;;;10.07;5.13;;;14.20;99.90;;;;;;5136220;27;20071;-85
2022/11/01 04:06:24;;;;;;;9.57;5.13;;;14.20;99.90;;;;;;5135425;27;20043;-84
2022/11/01 04:08:50;;;;;;;12.40;5.65;;;14.20;99.90;;;;;;5135093;27;20039;-83
2022/11/01 04:11:15;;;;;;;14.00;5.70;;;14.20;99.90;;;;;;5135980;27;20039;-84
2022/11/01 04:13:42;;;;;;;14.43;5.47;;;14.20;99.90;;;;;;5136025;27;20047;-84
2022/11/01 04:21:37;;;;;;;10.55;5.20;;;14.20;99.90;;;;;;5135619;27;20043;-84
2022/11/01 04:24:03;;;;;;;12.10;4.90;;;14.20;99.90;;;;;;5134682;27;20031;-84
2022/11/01 04:26:29;;;;;;;9.88;4.82;;;14.20;99.90;;;;;;5117779;27;20095;-84
2022/11/01 04:28:57;;;;;;;9.82;5.45;;;14.30;99.90;;;;;;5134489;27;20483;-84
2022/11/01 04:31:34;;;;;;;8.95;5.40;;;14.50;99.90;;;;;;5134823;27;20050;-84
2022/11/01 04:34:02;;;;;;;9.98;4.63;;;14.40;99.90;;;;;;5134508;27;20047;-84
2022/11/01 04:36:28;;;;;;;13.50;4.90;;;14.70;99.90;;;;;;5134448;27;20039;-85
2022/11/01 04:38:55;;;;;;;11.07;5.53;;;14.70;99.90;;;;;;5135608;27;20051;-84
2022/11/01 04:41:22;;;;;;;8.45;4.60;;;14.70;99.90;;;;;;5135776;27;20043;-84
2022/11/01 04:43:48;;;;;;;9.43;4.60;;;14.80;99.90;;;;;;5134670;27;20121;-84
2022/11/01 04:46:14;;;;;;;10.90;5.13;;;15.00;99.90;;;;;;5134493;27;20394;-85
2022/11/01 04:48:40;;;;;;;7.90;4.45;;;15.00;99.90;;;;;;5135343;27;20107;-84
2022/11/01 04:51:07;;;;;;;6.80;4.40;;;15.00;99.90;;;;;;5134492;27;20043;-84
2022/11/01 04:53:33;;;;;;;9.10;5.00;;;15.00;99.90;;;;;;5135351;27;20127;-84
2022/11/01 04:56:01;;;;;;;11.90;4.85;;;15.00;99.90;;;;;;5135771;27;20096;-84
2022/11/01 04:58:26;;;;;;;10.05;4.80;;;15.10;99.90;;;;;;5134704;27;20055;-84
2022/11/01 05:00:52;;;;;;;10.87;5.07;;;15.10;99.90;;;;;;5135301;27;20130;-84
2022/11/01 05:03:17;;;;;;;8.57;5.07;;;15.00;99.90;;;;;;5117306;27;20051;-84
2022/11/01 05:05:43;;;;;;;8.33;5.10;;;15.10;99.90;;;;;;5134410;27;20548;-85
2022/11/01 05:08:11;;;;;;;6.95;4.57;;;15.00;99.90;;;;;;5135154;27;20043;-85
2022/11/01 05:10:42;;;;;;;9.43;4.95;;;15.20;99.90;;;;;;5135119;27;20035;-84
2022/11/01 05:13:08;;;;;;;9.57;4.65;;;15.20;99.90;;;;;;5133829;27;20053;-84
2022/11/01 05:15:34;;;;;;;12.70;4.75;;;15.20;99.90;;;;;;5134842;27;20036;-85
2022/11/01 05:18:00;;;;;;;7.57;4.63;;;15.20;99.90;;;;;;5133751;27;20096;-85
2022/11/01 05:20:27;;;;;;;12.00;4.50;;;15.20;99.90;;;;;;5135343;27;20043;-86
2022/11/01 05:23:01;;;;;;;7.70;4.25;;;15.20;99.90;;;;;;5133700;27;20285;-85
2022/11/01 05:25:27;;;;;;;9.05;4.25;;;15.30;99.90;;;;;;5135218;27;20051;-85
2022/11/01 05:28:06;;;;;;;10.63;4.63;;;15.30;99.90;;;;;;5116562;27;20108;-85
2022/11/01 05:30:33;;;;;;;9.45;4.70;;;15.30;99.90;;;;;;5133964;27;20043;-85
2022/11/01 05:33:00;;;;;;;8.30;4.45;;;15.40;99.90;;;;;;5134745;27;20050;-85
2022/11/01 05:35:26;;;;;;;12.07;4.88;;;15.30;99.90;;;;;;5134607;27;20046;-85
2022/11/01 05:37:52;;;;;;;7.97;4.30;;;15.30;99.90;;;;;;5133578;28;20076;-85
2022/11/01 05:40:18;;;;;;;7.75;4.32;;;15.30;99.90;;;;;;5134753;27;20394;-85
2022/11/01 05:42:44;;;;;;;10.18;4.43;;;15.30;99.90;;;;;;5136372;27;20043;-85
2022/11/01 05:45:09;;;;;;;11.27;4.23;;;15.40;99.90;;;;;;5122344;27;20043;-85
2022/11/01 05:47:35;;;;;;;14.37;4.10;;;15.40;99.90;;;;;;5139420;27;20043;-85
2022/11/01 05:50:01;;;;;;;9.77;3.70;;;15.50;99.90;;;;;;5137675;27;20051;-85
2022/11/01 05:52:27;;;;;;;7.78;4.10;;;15.40;99.90;;;;;;5137248;27;20082;-85
2022/11/01 05:54:52;;;;;;;6.50;4.30;;;15.40;99.90;;;;;;5138762;27;20047;-84
2022/11/01 05:57:18;;;;;;;10.20;4.23;;;15.40;99.90;;;;;;5137948;27;20061;-84
2022/11/01 05:59:43;;;;;;;7.38;4.45;;;15.40;99.90;;;;;;5119209;27;20040;-82
2022/11/01 06:02:09;;;;;;;8.63;3.80;;;15.90;99.90;;;;;;5116985;28;20122;-81
2022/11/01 06:04:34;;;;;;;7.88;4.20;;;15.40;99.90;;;;;;5117994;28;20062;-82
2022/11/01 06:07:00;;;;;;;11.80;4.05;;;15.30;99.90;;;;;;5116785;28;20189;-81
2022/11/01 06:09:25;;;;;;;7.20;3.53;;;15.30;99.90;;;;;;5118125;28;20040;-82
2022/11/01 06:11:51;;;;;;;7.10;3.50;;;15.30;99.90;;;;;;5118020;28;20509;-81
2022/11/01 06:14:17;;;;;;;6.93;3.40;;;15.30;99.90;;;;;;5117543;28;20043;-81
2022/11/01 06:16:43;;;;;;;5.22;3.22;;;15.20;99.90;;;;;;5118221;28;20122;-79
2022/11/01 06:19:09;;;;;;;8.02;3.20;;;15.10;99.90;;;;;;5117626;28;20055;-81
2022/11/01 06:21:35;;;;;;;10.40;2.57;;;15.30;99.90;;;;;;5117570;28;20050;-79
2022/11/01 06:24:00;;;;;;;4.87;2.30;;;15.10;99.90;;;;;;5117814;28;20040;-74
2022/11/01 06:26:26;;;;;;;4.75;2.50;;;15.00;99.90;;;;;;5117522;28;20393;-75
2022/11/01 06:28:51;;;;;;;8.93;2.43;;;15.00;99.90;;;;;;5117021;28;20116;-73
2022/11/01 06:31:17;;;;;;;9.40;2.00;;;14.90;99.90;;;;;;5117636;28;20463;-80
2022/11/01 06:33:42;;;;;;;4.82;1.80;;;14.80;99.90;;;;;;5116947;28;20047;-81
2022/11/01 06:36:08;;;;;;;4.93;2.00;;;14.70;99.90;;;;;;5116850;28;20046;-79
2022/11/01 06:38:34;;;;;;;3.43;2.00;;;14.70;99.90;;;;;;5116095;28;20608;-79
2022/11/01 06:41:00;;;;;;;3.08;1.65;;;14.60;99.90;;;;;;5117289;28;20043;-81
2022/11/01 06:43:26;;;;;;;4.38;1.98;;;14.60;99.90;;;;;;5116962;28;20044;-81
2022/11/01 06:45:52;;;;;;;3.43;1.87;;;14.50;99.90;;;;;;5116022;28;20391;-79
2022/11/01 06:48:17;;;;;;;2.90;1.80;;;14.40;99.90;;;;;;5117230;28;20051;-79
2022/11/01 06:50:43;;;;;;;6.30;1.93;;;14.30;99.90;;;;;;5117086;28;20043;-80
2022/11/01 06:53:08;;;;;;;2.38;1.48;;;14.20;99.90;;;;;;5115737;28;20054;-80
2022/11/01 06:55:34;;;;;;;4.95;1.40;;;14.20;99.90;;;;;;5098229;28;20067;-80
2022/11/01 06:58:02;;;;;;;2.83;1.53;;;14.10;99.90;;;;;;5115955;28;20043;-82
2022/11/01 07:00:29;;;;;;;2.75;1.48;;;13.90;99.90;;;;;;5115815;28;20046;-81
2022/11/01 07:03:04;;;;;;;4.43;1.70;;;14.00;99.90;;;;;;5116895;28;20051;-81
2022/11/01 07:05:32;;;;;;;3.42;1.75;;;13.90;99.90;;;;;;5116802;28;20054;-80
2022/11/01 07:07:59;;;;;;;4.15;1.60;;;13.90;99.90;;;;;;5116911;28;20046;-82
2022/11/01 07:10:25;;;;;;;;;;;13.80;99.90;;;;;;5116185;28;20363;-83
2022/11/01 07:12:55;;;;;;;4.57;1.40;;;13.70;99.90;;;;;;5115747;28;19926;-82
2022/11/01 07:15:20;;;;;;;3.45;1.70;;;13.60;99.90;;;;;;5116866;28;20341;-79
2022/11/01 07:17:46;;;;;;;2.87;1.50;;;13.60;99.90;;;;;;5116546;28;20046;-80
2022/11/01 07:20:12;;;;;;;4.15;1.60;;;13.60;99.90;;;;;;5116707;28;20130;-80
2022/11/01 07:22:38;;;;;;;2.43;1.50;;;13.60;99.90;;;;;;5098656;28;20109;-79
2022/11/01 07:25:04;;;;;;;5.13;1.50;;;13.60;99.90;;;;;;5116499;28;20391;-78
2022/11/01 07:27:30;;;;;;;3.45;1.30;;;13.60;99.90;;;;;;5116255;28;20091;-80
2022/11/01 07:29:55;;;;;;;3.75;1.60;;;13.60;99.90;;;;;;5116495;28;20083;-82
2022/11/01 07:32:21;;;;;;;3.97;1.50;;;13.50;99.90;;;;;;5133380;27;20043;-82
2022/11/01 07:34:46;;;;;;;6.13;1.30;;;13.60;99.90;;;;;;5136700;27;20529;-84
2022/11/01 07:37:12;;;;;;;3.20;1.48;;;13.60;99.90;;;;;;5136947;27;20092;-84
2022/11/01 07:39:38;;;;;;;5.57;1.55;;;13.50;99.90;;;;;;5137782;27;20035;-83
2022/11/01 07:42:03;;;;;;;3.08;1.27;;;13.50;99.90;;;;;;5136880;27;20483;-81
2022/11/01 07:44:29;;;;;;;6.40;1.67;;;13.50;99.90;;;;;;5136615;27;20035;-84
2022/11/01 07:46:54;;;;;;;2.80;1.45;;;13.60;99.90;;;;;;5136161;27;20086;-87
2022/11/01 07:49:20;;;;;;;5.03;1.73;;;13.60;99.90;;;;;;5136523;27;20039;-81
2022/11/01 07:51:45;;;;;;;6.72;1.75;;;13.60;99.90;;;;;;5135520;27;20059;-82
2022/11/01 07:54:11;;;;;;;6.13;1.50;;;13.60;99.90;;;;;;5135297;27;20097;-82
2022/11/01 07:56:37;;;;;;;5.07;1.50;;;13.70;99.90;;;;;;5135878;27;20046;-81
2022/11/01 07:59:02;;;;;;;4.30;1.70;;;13.70;99.90;;;;;;5135427;27;20051;-80
2022/11/01 08:01:28;;;;;;;6.18;1.90;;;13.70;99.90;;;;;;5136286;27;20057;-78
2022/11/01 08:03:53;;;;;;;9.45;2.17;;;14.00;99.90;;;;;;5136515;27;20050;-80
2022/11/01 08:06:19;;;;;;;8.93;1.90;;;13.80;99.90;;;;;;5135019;27;20098;-78
2022/11/01 08:08:45;;;;;;;8.10;2.47;;;13.90;99.90;;;;;;5136093;27;20047;-80
2022/11/01 08:11:14;;;;;;;7.05;2.03;;;13.90;99.90;;;;;;5136177;27;20091;-78
2022/11/01 08:13:42;;;;;;;7.55;1.98;;;13.90;99.90;;;;;;5134488;27;20474;-80
2022/11/01 08:16:08;;;;;;;8.03;2.00;;;14.20;99.90;;;;;;5135588;27;20133;-79
2022/11/01 08:18:33;;;;;;;7.45;2.00;;;14.10;99.90;;;;;;5135943;27;20471;-79
2022/11/01 08:20:59;;;;;;;6.73;1.90;;;14.00;99.90;;;;;;5135530;27;20134;-75
2022/11/01 08:23:24;;;;;;;11.55;2.15;;;14.00;99.90;;;;;;5117551;27;20046;-82
2022/11/01 08:25:50;;;;;;;17.80;2.28;;;14.00;99.90;;;;;;5135659;27;20043;-79
2022/11/01 08:28:18;;;;;;;4.70;1.70;;;14.10;99.90;;;;;;5135453;27;20495;-79
2022/11/01 08:30:45;;;;;;;11.55;1.80;;;14.10;99.90;;;;;;5135816;27;20401;-82
2022/11/01 08:33:11;;;;;;;12.30;1.60;;;14.10;99.90;;;;;;5135942;27;20126;-81
2022/11/01 08:35:37;;;;;;;10.00;1.90;;;14.30;99.90;;;;;;5135721;27;20192;-82
2022/11/01 08:38:03;;;;;;;14.35;2.00;;;14.20;99.90;;;;;;5134917;27;20112;-80
2022/11/01 08:40:30;;;;;;;5.05;1.80;;;14.20;99.90;;;;;;5135530;27;20043;-81
2022/11/01 08:42:56;;;;;;;;;;;14.30;99.90;;;;;;5134766;27;20043;-82
2022/11/01 08:45:22;;;;;;;16.27;2.65;;;14.30;99.90;;;;;;5135510;27;20339;-82
2022/11/01 08:47:48;;;;;;;11.55;2.28;;;14.40;99.90;;;;;;5135617;27;20383;-79
2022/11/01 08:50:16;;;;;;;8.10;2.15;;;14.40;99.90;;;;;;5135437;27;20035;-78
2022/11/01 08:52:41;;;;;;;8.90;2.40;;;14.40;99.90;;;;;;5135310;27;20071;-80
2022/11/01 08:55:09;;;;;;;9.37;1.97;;;14.40;99.90;;;;;;5135103;27;20043;-80
2022/11/01 08:57:35;;;;;;;13.35;2.20;;;14.40;99.90;;;;;;5135385;27;20359;-80
2022/11/01 09:00:02;;;;;;;13.83;2.63;;;14.50;99.90;;;;;;5135352;27;20043;-82
2022/11/01 09:02:28;;;;;;;10.75;2.10;;;14.50;99.90;;;;;;5135263;27;20047;-81
2022/11/01 09:04:54;;;;;;;8.23;2.23;;;14.60;99.90;;;;;;5133930;27;20039;-79
2022/11/01 09:07:19;;;;;;;13.30;2.63;;;14.50;99.90;;;;;;5134242;27;20051;-79
2022/11/01 09:09:45;;;;;;;14.27;2.23;;;14.50;99.90;;;;;;5134806;27;20483;-81
2022/11/01 09:12:11;;;;;;;14.70;2.67;;;14.50;99.90;;;;;;5135136;27;20047;-80
2022/11/01 09:14:37;;;;;;;17.52;2.40;;;14.60;99.90;;;;;;5135059;27;20099;-83
2022/11/01 09:17:03;;;;;;;13.27;2.70;;;14.50;99.90;;;;;;5133749;27;20039;-85
2022/11/01 09:19:28;;;;;;;13.95;2.65;;;14.70;99.90;;;;;;5134356;27;20383;-77
2022/11/01 09:21:54;;;;;;;14.27;2.70;;;14.70;99.90;;;;;;5135913;27;20036;-85
2022/11/01 09:24:19;;;;;;;9.38;2.60;;;14.90;99.90;;;;;;5135124;27;20035;-83
2022/11/01 09:26:45;;;;;;;9.60;3.13;;;14.50;99.90;;;;;;5134494;27;20096;-83
2022/11/01 09:29:11;;;;;;;9.18;2.80;;;14.70;99.90;;;;;;5134491;27;20456;-83
2022/11/01 09:31:36;;;;;;;16.58;2.88;;;14.60;99.90;;;;;;5134372;27;20093;-83
2022/11/01 09:34:02;;;;;;;12.20;2.90;;;14.60;99.90;;;;;;5133035;28;20099;-83
2022/11/01 09:36:28;;;;;;;15.30;3.05;;;14.70;99.90;;;;;;5133518;28;20054;-83
2022/11/01 09:38:55;;;;;;;11.18;2.45;;;14.80;99.90;;;;;;5134250;27;20047;-83
2022/11/01 09:41:38;;;;;;;13.75;3.47;;;14.80;99.90;;;;;;5133256;28;20100;-83
2022/11/01 09:44:06;;;;;;;9.02;2.38;;;14.90;99.90;;;;;;5134576;27;20043;-83
2022/11/01 09:46:57;;;;;;;11.98;2.88;;;15.00;99.90;;;;;;5133767;28;20058;-83
2022/11/01 09:49:27;;;;;;;10.02;2.92;;;15.00;99.90;;;;;;5134005;28;20082;-83
2022/11/01 09:51:53;;;;;;;11.57;3.08;;;14.80;99.90;;;;;;5135679;27;20053;-83
2022/11/01 09:54:22;;;;;;;10.93;2.42;;;15.00;99.90;;;;;;5134649;27;20043;-83
2022/11/01 09:57:16;;;;;;;11.68;2.80;;;15.00;99.90;;;;;;5134549;27;20051;-83
2022/11/01 09:59:57;;;;;;;16.35;3.55;;;15.20;99.90;;;;;;5134702;27;20056;-83
2022/11/01 10:02:59;;;;;;;11.73;2.78;;;15.10;99.90;;;;;;5133479;28;20051;-84
2022/11/01 10:05:49;;;;;;;13.80;2.85;;;15.10;99.90;;;;;;5134702;28;20047;-83
2022/11/01 10:08:40;;;;;;;11.63;2.97;;;15.20;99.90;;;;;;5134632;27;20499;-83
2022/11/01 10:11:12;;;;;;;14.80;3.35;;;15.30;99.90;;;;;;5134859;28;20051;-83
2022/11/01 10:13:45;;;;;;;14.23;2.55;;;15.30;99.90;;;;;;5133909;28;20055;-82
2022/11/01 10:16:33;;;;;;;15.43;3.53;;;15.30;99.90;;;;;;5134314;28;20037;-82
2022/11/01 10:19:11;;;;;;;12.57;3.08;;;15.40;99.90;;;;;;5134562;28;20039;-82
2022/11/01 10:21:53;;;;;;;12.60;2.88;;;15.40;99.90;;;;;;5134436;27;20047;-83
2022/11/01 10:24:44;;;;;;;12.40;2.88;;;15.50;99.90;;;;;;5134691;27;20089;-83
2022/11/01 10:27:29;;;;;;;9.77;2.30;;;15.80;99.90;;;;;;5134153;27;20363;-82
2022/11/01 10:29:59;;;;;;;16.50;3.42;;;15.60;99.90;;;;;;5135899;27;20047;-83
2022/11/01 10:32:44;;;;;;;10.90;2.83;;;15.60;99.90;;;;;;5138133;27;20130;-83
2022/11/01 10:35:19;;;;;;;12.98;2.47;;;15.60;99.90;;;;;;5137072;27;20035;-83
2022/11/01 10:38:10;;;;;;;12.65;2.45;;;15.60;99.90;;;;;;5137711;27;20503;-83
2022/11/01 10:41:02;;;;;;;14.80;2.60;;;15.60;99.90;;;;;;5138290;27;20057;-83
2022/11/01 10:43:32;;;;;;;18.13;2.72;;;15.70;99.90;;;;;;5073099;27;20059;-82
2022/11/01 10:45:59;;;;;;;9.88;2.92;;;15.70;99.90;;;;;;5137836;27;20082;-83
2022/11/01 10:48:35;;;;;;;18.17;2.75;;;15.70;99.90;;;;;;5137718;27;20390;-83
2022/11/01 10:51:05;;;;;;;9.27;2.55;;;15.70;99.90;;;;;;5137151;27;20043;-82
2022/11/01 10:53:42;;;;;;;12.13;2.47;;;15.70;99.90;;;;;;5138122;27;20083;-83
2022/11/01 10:56:13;;;;;;;11.65;2.70;;;15.80;99.90;;;;;;5137602;27;20047;-83
2022/11/01 10:58:59;;;;;;;13.45;2.58;;;15.80;99.90;;;;;;5119454;27;20390;-83
2022/11/01 11:01:28;;;;;;;14.88;2.80;;;15.80;99.90;;;;;;5137043;27;20047;-83
2022/11/01 11:03:56;;;;;;;14.52;3.10;;;15.80;99.90;;;;;;5137829;27;20394;-83
2022/11/01 11:06:22;;;;;;;9.45;2.45;;;15.80;99.90;;;;;;5137440;27;20054;-82
2022/11/01 11:08:50;;;;;;;11.40;3.33;;;15.90;99.90;;;;;;5137361;27;20047;-83
2022/11/01 11:11:19;;;;;;;12.88;3.00;;;15.90;99.90;;;;;;5137099;27;20047;-83
2022/11/01 11:13:49;;;;;;;16.40;2.70;;;15.90;99.90;;;;;;5137121;27;20055;-83
2022/11/01 11:16:29;;;;;;;12.57;2.85;;;16.00;99.90;;;;;;5137252;27;20058;-83
2022/11/01 11:19:11;;;;;;;11.45;2.70;;;16.00;99.90;;;;;;5137068;27;20043;-83
2022/11/01 11:21:36;;;;;;;14.90;2.88;;;16.00;99.90;;;;;;5136000;27;20403;-82
2022/11/01 11:24:02;;;;;;;14.27;2.60;;;16.10;99.90;;;;;;5135873;27;20039;-78
2022/11/01 11:26:37;;;;;;;19.08;3.58;;;15.90;99.90;;;;;;5135914;27;20047;-79
2022/11/01 11:29:03;;;;;;;15.85;2.72;;;15.90;99.90;;;;;;5137096;27;20063;-82
2022/11/01 11:31:32;;;;;;;8.65;2.75;;;15.90;99.90;;;;;;5136928;27;20047;-83
2022/11/01 11:34:28;;;;;;;17.02;2.75;;;15.90;99.90;;;;;;5136609;27;20482;-81
2022/11/01 11:36:54;;;;;;;10.93;2.55;;;15.90;99.90;;;;;;5136787;27;20047;-83
2022/11/01 11:39:44;;;;;;;12.30;2.58;;;16.00;99.90;;;;;;5141744;27;20054;-86
2022/11/01 11:42:24;;;;;;;17.15;3.80;;;16.00;99.90;;;;;;5137878;27;20047;-81
2022/11/01 11:44:54;;;;;;;13.93;2.72;;;16.00;99.90;;;;;;5136698;27;20131;-81
2022/11/01 11:47:26;;;;;;;14.52;2.97;;;16.10;99.90;;;;;;5136633;27;20043;-79
2022/11/01 11:49:58;;;;;;;16.70;2.33;;;16.10;99.90;;;;;;5136630;27;20094;-82
2022/11/01 11:52:33;;;;;;;12.90;2.20;;;16.10;99.90;;;;;;5118466;27;20199;-83
2022/11/01 11:54:59;;;;;;;20.00;2.88;;;16.20;99.90;;;;;;5135196;27;20532;-83
2022/11/01 11:57:28;;;;;;;13.73;3.47;;;16.20;99.90;;;;;;5136360;27;20075;-81
2022/11/01 12:00:05;;;;;;;10.38;2.72;;;16.10;99.90;;;;;;5135147;27;20047;-85
2022/11/01 12:02:39;;;;;;;8.73;3.00;;;16.10;99.90;;;;;;5136384;27;20395;-83
2022/11/01 12:05:07;;;;;;;10.73;2.70;;;16.10;99.90;;;;;;5136256;27;20039;-84
2022/11/01 12:07:44;;;;;;;18.70;2.97;;;16.10;99.90;;;;;;5136084;27;20096;-81
2022/11/01 12:10:39;;;;;;;15.82;3.25;;;16.20;99.90;;;;;;5135140;27;20042;-82
2022/11/01 12:13:40;;;;;;;10.20;2.38;;;16.20;99.90;;;;;;5135746;27;20482;-83
2022/11/01 12:16:07;;;;;;;9.48;2.38;;;16.20;99.90;;;;;;5081521;27;20058;-82
2022/11/01 12:18:32;;;;;;;11.57;2.90;;;16.30;99.90;;;;;;5134828;27;20054;-81
2022/11/01 12:20:58;;;;;;;9.10;2.47;;;16.30;99.90;;;;;;5134844;27;20054;-83
2022/11/01 12:23:34;;;;;;;11.75;2.45;;;16.00;99.90;;;;;;5135740;27;20039;-82
2022/11/01 12:26:05;;;;;;;9.73;2.65;;;16.20;99.90;;;;;;5135849;27;20086;-82
2022/11/01 12:28:41;;;;;;;8.90;2.40;;;16.30;99.90;;;;;;5135703;27;20379;-83
2022/11/01 12:31:33;;;;;;;9.90;2.30;;;16.30;99.90;;;;;;5135728;27;20071;-82
2022/11/01 12:34:06;;;;;;;8.88;2.50;;;16.30;99.90;;;;;;5129743;27;20058;-82
2022/11/01 12:36:42;;;;;;;12.02;2.08;;;16.30;99.90;;;;;;5117696;27;20051;-80
2022/11/01 12:39:41;;;;;;;9.30;1.98;;;16.30;99.90;;;;;;5135846;27;20555;-75
2022/11/01 12:42:10;;;;;;;12.30;2.10;;;16.30;99.90;;;;;;5135447;27;20043;-74
2022/11/01 12:44:48;;;;;;;11.75;1.98;;;16.20;99.90;;;;;;5135585;27;20364;-75
2022/11/01 12:47:16;;;;;;;;;;;16.30;99.90;;;;;;5135884;27;20498;-75
2022/11/01 12:49:50;;;;;;;8.02;2.00;;;16.20;99.90;;;;;;5135352;27;19979;-74
2022/11/01 12:52:24;;;;;;;15.23;2.47;;;16.20;99.90;;;;;;5134913;27;20433;-75
2022/11/01 12:55:12;;;;;;;7.75;1.90;;;16.20;99.90;;;;;;5135231;27;20046;-75
2022/11/01 12:57:38;;;;;;;9.13;2.80;;;16.20;99.90;;;;;;5135056;27;20146;-75
2022/11/01 13:00:06;;;;;;;14.52;2.38;;;16.20;99.90;;;;;;5135610;27;20043;-75